sensor_id;sensor_type;location;lat;lon;timestamp;P1;durP1;ratioP1;P2;durP2;ratioP2
15689;SDS011;7945;48.816;11.506;2023-05-29T00:00:07;3.55;;;2.60;;
15689;SDS011;7945;48.816;11.506;2023-05-29T00:02:34;3.55;;;2.80;;
15689;SDS011;7945;48.816;11.506;2023-05-29T00:05:01;4.00;;;2.65;;
15689;SDS011;7945;48.816;11.506;2023-05-29T00:07:30;3.35;;;2.60;;
15689;SDS011;7945;48.816;11.506;2023-05-29T00:09:57;5.25;;;2.78;;
15689;SDS011;7945;48.816;11.506;2023-05-29T00:12:24;4.30;;;2.30;;
15689;SDS011;7945;48.816;11.506;2023-05-29T00:14:50;6.88;;;2.60;;
15689;SDS011;7945;48.816;11.506;2023-05-29T00:17:17;5.30;;;2.53;;
15689;SDS011;7945;48.816;11.506;2023-05-29T00:19:45;3.38;;;2.90;;
15689;SDS011;7945;48.816;11.506;2023-05-29T00:22:12;7.72;;;2.55;;
15689;SDS011;7945;48.816;11.506;2023-05-29T00:24:40;3.22;;;2.42;;
15689;SDS011;7945;48.816;11.506;2023-05-29T00:27:07;4.15;;;2.70;;
15689;SDS011;7945;48.816;11.506;2023-05-29T00:29:34;3.92;;;2.90;;
15689;SDS011;7945;48.816;11.506;2023-05-29T00:32:03;6.38;;;2.58;;
15689;SDS011;7945;48.816;11.506;2023-05-29T00:34:30;3.25;;;2.30;;
15689;SDS011;7945;48.816;11.506;2023-05-29T00:36:57;3.90;;;2.70;;
15689;SDS011;7945;48.816;11.506;2023-05-29T00:39:24;5.57;;;3.33;;
15689;SDS011;7945;48.816;11.506;2023-05-29T00:41:52;3.38;;;2.65;;
15689;SDS011;7945;48.816;11.506;2023-05-29T00:44:19;4.80;;;2.85;;
15689;SDS011;7945;48.816;11.506;2023-05-29T00:46:46;2.65;;;2.30;;
15689;SDS011;7945;48.816;11.506;2023-05-29T00:49:14;6.70;;;2.72;;
15689;SDS011;7945;48.816;11.506;2023-05-29T00:51:42;3.95;;;2.35;;
15689;SDS011;7945;48.816;11.506;2023-05-29T00:54:10;3.83;;;2.47;;
15689;SDS011;7945;48.816;11.506;2023-05-29T00:56:38;5.15;;;3.17;;
15689;SDS011;7945;48.816;11.506;2023-05-29T00:59:09;4.18;;;2.80;;
15689;SDS011;7945;48.816;11.506;2023-05-29T01:01:36;4.15;;;2.80;;
15689;SDS011;7945;48.816;11.506;2023-05-29T01:04:04;3.42;;;2.30;;
15689;SDS011;7945;48.816;11.506;2023-05-29T01:06:32;4.68;;;3.00;;
15689;SDS011;7945;48.816;11.506;2023-05-29T01:08:59;5.03;;;2.88;;
15689;SDS011;7945;48.816;11.506;2023-05-29T01:11:31;3.50;;;2.33;;
15689;SDS011;7945;48.816;11.506;2023-05-29T01:14:03;3.92;;;2.42;;
15689;SDS011;7945;48.816;11.506;2023-05-29T01:16:37;5.25;;;2.40;;
15689;SDS011;7945;48.816;11.506;2023-05-29T01:19:28;3.92;;;2.45;;
15689;SDS011;7945;48.816;11.506;2023-05-29T01:22:11;3.28;;;2.75;;
15689;SDS011;7945;48.816;11.506;2023-05-29T01:24:43;5.10;;;2.72;;
15689;SDS011;7945;48.816;11.506;2023-05-29T01:27:17;3.45;;;2.35;;
15689;SDS011;7945;48.816;11.506;2023-05-29T01:29:45;3.22;;;2.55;;
15689;SDS011;7945;48.816;11.506;2023-05-29T01:32:13;4.70;;;2.35;;
15689;SDS011;7945;48.816;11.506;2023-05-29T01:34:40;4.57;;;2.40;;
15689;SDS011;7945;48.816;11.506;2023-05-29T01:37:06;4.47;;;2.85;;
15689;SDS011;7945;48.816;11.506;2023-05-29T01:39:33;5.18;;;3.30;;
15689;SDS011;7945;48.816;11.506;2023-05-29T01:42:00;4.53;;;2.55;;
15689;SDS011;7945;48.816;11.506;2023-05-29T01:44:30;7.00;;;2.85;;
15689;SDS011;7945;48.816;11.506;2023-05-29T01:46:57;4.63;;;2.40;;
15689;SDS011;7945;48.816;11.506;2023-05-29T01:49:24;4.10;;;3.03;;
15689;SDS011;7945;48.816;11.506;2023-05-29T01:51:52;5.68;;;2.83;;
15689;SDS011;7945;48.816;11.506;2023-05-29T01:54:19;5.47;;;2.60;;
15689;SDS011;7945;48.816;11.506;2023-05-29T01:56:46;7.30;;;3.53;;
15689;SDS011;7945;48.816;11.506;2023-05-29T01:59:15;4.32;;;2.30;;
15689;SDS011;7945;48.816;11.506;2023-05-29T02:01:43;5.20;;;2.90;;
15689;SDS011;7945;48.816;11.506;2023-05-29T02:04:10;4.10;;;2.60;;
15689;SDS011;7945;48.816;11.506;2023-05-29T02:06:37;6.63;;;3.00;;
15689;SDS011;7945;48.816;11.506;2023-05-29T02:09:04;4.28;;;3.17;;
15689;SDS011;7945;48.816;11.506;2023-05-29T02:11:31;3.00;;;2.45;;
15689;SDS011;7945;48.816;11.506;2023-05-29T02:13:57;2.88;;;2.33;;
15689;SDS011;7945;48.816;11.506;2023-05-29T02:16:27;4.63;;;2.67;;
15689;SDS011;7945;48.816;11.506;2023-05-29T02:18:55;3.38;;;2.50;;
15689;SDS011;7945;48.816;11.506;2023-05-29T02:21:22;5.10;;;2.72;;
15689;SDS011;7945;48.816;11.506;2023-05-29T02:23:49;3.95;;;2.53;;
15689;SDS011;7945;48.816;11.506;2023-05-29T02:26:15;7.30;;;2.55;;
15689;SDS011;7945;48.816;11.506;2023-05-29T02:28:42;9.35;;;2.78;;
15689;SDS011;7945;48.816;11.506;2023-05-29T02:31:09;4.18;;;2.70;;
15689;SDS011;7945;48.816;11.506;2023-05-29T02:33:36;3.50;;;2.40;;
15689;SDS011;7945;48.816;11.506;2023-05-29T02:36:04;5.03;;;2.63;;
15689;SDS011;7945;48.816;11.506;2023-05-29T02:38:36;7.82;;;3.15;;
15689;SDS011;7945;48.816;11.506;2023-05-29T02:41:03;4.80;;;2.40;;
15689;SDS011;7945;48.816;11.506;2023-05-29T02:43:31;7.43;;;3.38;;
15689;SDS011;7945;48.816;11.506;2023-05-29T02:45:57;5.20;;;2.40;;
15689;SDS011;7945;48.816;11.506;2023-05-29T02:48:24;5.07;;;2.67;;
15689;SDS011;7945;48.816;11.506;2023-05-29T02:50:51;3.70;;;2.45;;
15689;SDS011;7945;48.816;11.506;2023-05-29T02:53:19;2.75;;;2.08;;
15689;SDS011;7945;48.816;11.506;2023-05-29T02:55:46;4.10;;;2.65;;
15689;SDS011;7945;48.816;11.506;2023-05-29T02:58:13;3.50;;;2.25;;
15689;SDS011;7945;48.816;11.506;2023-05-29T03:00:41;2.90;;;2.33;;
15689;SDS011;7945;48.816;11.506;2023-05-29T03:03:08;4.43;;;2.40;;
15689;SDS011;7945;48.816;11.506;2023-05-29T03:05:35;4.72;;;3.00;;
15689;SDS011;7945;48.816;11.506;2023-05-29T03:08:02;5.72;;;2.70;;
15689;SDS011;7945;48.816;11.506;2023-05-29T03:10:30;2.65;;;2.38;;
15689;SDS011;7945;48.816;11.506;2023-05-29T03:12:56;3.47;;;2.13;;
15689;SDS011;7945;48.816;11.506;2023-05-29T03:15:23;6.43;;;2.75;;
15689;SDS011;7945;48.816;11.506;2023-05-29T03:17:50;4.82;;;2.97;;
15689;SDS011;7945;48.816;11.506;2023-05-29T03:20:17;3.05;;;2.05;;
15689;SDS011;7945;48.816;11.506;2023-05-29T03:22:43;3.72;;;2.40;;
15689;SDS011;7945;48.816;11.506;2023-05-29T03:25:10;4.07;;;2.47;;
15689;SDS011;7945;48.816;11.506;2023-05-29T03:27:38;4.40;;;2.20;;
15689;SDS011;7945;48.816;11.506;2023-05-29T03:30:05;4.60;;;2.15;;
15689;SDS011;7945;48.816;11.506;2023-05-29T03:32:34;4.72;;;2.42;;
15689;SDS011;7945;48.816;11.506;2023-05-29T03:35:01;4.20;;;2.20;;
15689;SDS011;7945;48.816;11.506;2023-05-29T03:37:29;4.72;;;2.08;;
15689;SDS011;7945;48.816;11.506;2023-05-29T03:39:55;5.63;;;2.53;;
15689;SDS011;7945;48.816;11.506;2023-05-29T03:42:22;2.72;;;2.42;;
15689;SDS011;7945;48.816;11.506;2023-05-29T03:44:50;4.57;;;2.25;;
15689;SDS011;7945;48.816;11.506;2023-05-29T03:47:17;4.10;;;2.67;;
15689;SDS011;7945;48.816;11.506;2023-05-29T03:49:43;8.15;;;2.58;;
15689;SDS011;7945;48.816;11.506;2023-05-29T03:52:10;3.95;;;2.60;;
15689;SDS011;7945;48.816;11.506;2023-05-29T03:54:37;3.03;;;2.30;;
15689;SDS011;7945;48.816;11.506;2023-05-29T03:57:04;4.07;;;2.22;;
15689;SDS011;7945;48.816;11.506;2023-05-29T03:59:31;2.58;;;2.30;;
15689;SDS011;7945;48.816;11.506;2023-05-29T04:01:59;5.07;;;2.65;;
15689;SDS011;7945;48.816;11.506;2023-05-29T04:04:26;5.25;;;2.60;;
15689;SDS011;7945;48.816;11.506;2023-05-29T04:06:53;4.78;;;2.60;;
15689;SDS011;7945;48.816;11.506;2023-05-29T04:09:20;3.08;;;2.45;;
15689;SDS011;7945;48.816;11.506;2023-05-29T04:11:46;3.17;;;2.30;;
15689;SDS011;7945;48.816;11.506;2023-05-29T04:14:14;4.93;;;2.30;;
15689;SDS011;7945;48.816;11.506;2023-05-29T04:16:41;3.15;;;2.53;;
15689;SDS011;7945;48.816;11.506;2023-05-29T04:19:09;3.70;;;2.60;;
15689;SDS011;7945;48.816;11.506;2023-05-29T04:21:35;3.75;;;2.50;;
15689;SDS011;7945;48.816;11.506;2023-05-29T04:24:02;3.22;;;2.42;;
15689;SDS011;7945;48.816;11.506;2023-05-29T04:26:29;2.88;;;2.30;;
15689;SDS011;7945;48.816;11.506;2023-05-29T04:28:57;2.65;;;2.08;;
15689;SDS011;7945;48.816;11.506;2023-05-29T04:31:24;6.57;;;2.55;;
15689;SDS011;7945;48.816;11.506;2023-05-29T04:33:51;2.80;;;2.00;;
15689;SDS011;7945;48.816;11.506;2023-05-29T04:36:22;6.57;;;2.30;;
15689;SDS011;7945;48.816;11.506;2023-05-29T04:38:50;4.93;;;2.35;;
15689;SDS011;7945;48.816;11.506;2023-05-29T04:41:17;3.13;;;2.00;;
15689;SDS011;7945;48.816;11.506;2023-05-29T04:43:44;5.07;;;2.28;;
15689;SDS011;7945;48.816;11.506;2023-05-29T04:46:11;3.90;;;2.65;;
15689;SDS011;7945;48.816;11.506;2023-05-29T04:48:40;3.85;;;2.58;;
15689;SDS011;7945;48.816;11.506;2023-05-29T04:51:07;5.90;;;2.63;;
15689;SDS011;7945;48.816;11.506;2023-05-29T04:53:37;4.25;;;2.50;;
15689;SDS011;7945;48.816;11.506;2023-05-29T04:56:05;2.33;;;2.05;;
15689;SDS011;7945;48.816;11.506;2023-05-29T04:58:32;6.90;;;2.38;;
15689;SDS011;7945;48.816;11.506;2023-05-29T05:00:59;3.38;;;2.17;;
15689;SDS011;7945;48.816;11.506;2023-05-29T05:03:28;5.40;;;2.60;;
15689;SDS011;7945;48.816;11.506;2023-05-29T05:05:55;3.13;;;2.10;;
15689;SDS011;7945;48.816;11.506;2023-05-29T05:08:22;3.55;;;2.10;;
15689;SDS011;7945;48.816;11.506;2023-05-29T05:10:50;4.22;;;2.30;;
15689;SDS011;7945;48.816;11.506;2023-05-29T05:13:17;2.83;;;1.85;;
15689;SDS011;7945;48.816;11.506;2023-05-29T05:15:43;2.83;;;2.00;;
15689;SDS011;7945;48.816;11.506;2023-05-29T05:18:10;5.57;;;2.00;;
15689;SDS011;7945;48.816;11.506;2023-05-29T05:20:37;3.53;;;2.22;;
15689;SDS011;7945;48.816;11.506;2023-05-29T05:23:04;3.28;;;2.47;;
15689;SDS011;7945;48.816;11.506;2023-05-29T05:25:30;2.53;;;2.25;;
15689;SDS011;7945;48.816;11.506;2023-05-29T05:27:59;3.72;;;1.90;;
15689;SDS011;7945;48.816;11.506;2023-05-29T05:30:26;2.20;;;2.00;;
15689;SDS011;7945;48.816;11.506;2023-05-29T05:32:53;2.47;;;1.88;;
15689;SDS011;7945;48.816;11.506;2023-05-29T05:35:19;3.25;;;2.00;;
15689;SDS011;7945;48.816;11.506;2023-05-29T05:37:46;2.80;;;1.83;;
15689;SDS011;7945;48.816;11.506;2023-05-29T05:40:13;2.92;;;1.85;;
15689;SDS011;7945;48.816;11.506;2023-05-29T05:42:40;4.57;;;2.00;;
15689;SDS011;7945;48.816;11.506;2023-05-29T05:45:08;5.60;;;2.30;;
15689;SDS011;7945;48.816;11.506;2023-05-29T05:47:36;5.78;;;1.75;;
15689;SDS011;7945;48.816;11.506;2023-05-29T05:50:03;2.30;;;1.73;;
15689;SDS011;7945;48.816;11.506;2023-05-29T05:52:30;3.00;;;1.67;;
15689;SDS011;7945;48.816;11.506;2023-05-29T05:54:58;5.80;;;2.00;;
15689;SDS011;7945;48.816;11.506;2023-05-29T05:57:25;2.38;;;2.00;;
15689;SDS011;7945;48.816;11.506;2023-05-29T05:59:52;3.97;;;2.10;;
15689;SDS011;7945;48.816;11.506;2023-05-29T06:02:20;3.22;;;1.95;;
15689;SDS011;7945;48.816;11.506;2023-05-29T06:04:47;5.28;;;1.95;;
15689;SDS011;7945;48.816;11.506;2023-05-29T06:07:14;3.67;;;1.80;;
15689;SDS011;7945;48.816;11.506;2023-05-29T06:09:41;5.22;;;2.22;;
15689;SDS011;7945;48.816;11.506;2023-05-29T06:15:22;4.40;;;1.83;;
15689;SDS011;7945;48.816;11.506;2023-05-29T06:17:49;2.22;;;1.58;;
15689;SDS011;7945;48.816;11.506;2023-05-29T06:20:17;4.22;;;2.08;;
15689;SDS011;7945;48.816;11.506;2023-05-29T06:22:44;4.25;;;2.00;;
15689;SDS011;7945;48.816;11.506;2023-05-29T06:25:15;2.75;;;1.90;;
15689;SDS011;7945;48.816;11.506;2023-05-29T06:27:43;4.65;;;2.00;;
15689;SDS011;7945;48.816;11.506;2023-05-29T06:30:10;5.70;;;2.10;;
15689;SDS011;7945;48.816;11.506;2023-05-29T06:32:39;3.13;;;2.15;;
15689;SDS011;7945;48.816;11.506;2023-05-29T06:35:06;3.53;;;2.15;;
15689;SDS011;7945;48.816;11.506;2023-05-29T06:37:33;2.63;;;1.90;;
15689;SDS011;7945;48.816;11.506;2023-05-29T06:40:00;3.08;;;2.15;;
15689;SDS011;7945;48.816;11.506;2023-05-29T06:42:27;2.75;;;2.20;;
15689;SDS011;7945;48.816;11.506;2023-05-29T06:44:53;2.97;;;2.20;;
15689;SDS011;7945;48.816;11.506;2023-05-29T06:47:20;3.75;;;2.10;;
15689;SDS011;7945;48.816;11.506;2023-05-29T06:49:48;2.10;;;1.70;;
15689;SDS011;7945;48.816;11.506;2023-05-29T06:52:15;3.17;;;2.10;;
15689;SDS011;7945;48.816;11.506;2023-05-29T06:54:41;5.38;;;2.25;;
15689;SDS011;7945;48.816;11.506;2023-05-29T06:57:08;3.13;;;1.90;;
15689;SDS011;7945;48.816;11.506;2023-05-29T06:59:35;2.90;;;1.65;;
15689;SDS011;7945;48.816;11.506;2023-05-29T07:02:02;4.38;;;2.42;;
15689;SDS011;7945;48.816;11.506;2023-05-29T07:04:30;2.65;;;1.90;;
15689;SDS011;7945;48.816;11.506;2023-05-29T07:06:58;3.58;;;2.20;;
15689;SDS011;7945;48.816;11.506;2023-05-29T07:09:25;3.53;;;2.15;;
15689;SDS011;7945;48.816;11.506;2023-05-29T07:11:52;4.70;;;2.13;;
15689;SDS011;7945;48.816;11.506;2023-05-29T07:14:19;5.78;;;2.30;;
15689;SDS011;7945;48.816;11.506;2023-05-29T07:16:46;3.63;;;2.05;;
15689;SDS011;7945;48.816;11.506;2023-05-29T07:19:12;3.78;;;2.05;;
15689;SDS011;7945;48.816;11.506;2023-05-29T07:21:39;3.33;;;2.13;;
15689;SDS011;7945;48.816;11.506;2023-05-29T07:24:07;4.55;;;1.88;;
15689;SDS011;7945;48.816;11.506;2023-05-29T07:26:34;2.80;;;1.90;;
15689;SDS011;7945;48.816;11.506;2023-05-29T07:29:01;2.97;;;2.38;;
15689;SDS011;7945;48.816;11.506;2023-05-29T07:31:27;2.85;;;1.83;;
15689;SDS011;7945;48.816;11.506;2023-05-29T07:33:54;3.05;;;2.08;;
15689;SDS011;7945;48.816;11.506;2023-05-29T07:36:21;3.35;;;2.45;;
15689;SDS011;7945;48.816;11.506;2023-05-29T07:38:47;2.15;;;1.90;;
15689;SDS011;7945;48.816;11.506;2023-05-29T07:41:16;3.50;;;2.10;;
15689;SDS011;7945;48.816;11.506;2023-05-29T07:43:43;5.38;;;2.22;;
15689;SDS011;7945;48.816;11.506;2023-05-29T07:46:15;5.47;;;2.08;;
15689;SDS011;7945;48.816;11.506;2023-05-29T07:48:42;2.90;;;2.00;;
15689;SDS011;7945;48.816;11.506;2023-05-29T07:51:10;2.75;;;2.13;;
15689;SDS011;7945;48.816;11.506;2023-05-29T07:53:38;2.58;;;2.00;;
15689;SDS011;7945;48.816;11.506;2023-05-29T07:56:05;2.13;;;1.80;;
15689;SDS011;7945;48.816;11.506;2023-05-29T07:58:33;5.97;;;2.47;;
15689;SDS011;7945;48.816;11.506;2023-05-29T08:01:00;3.65;;;1.95;;
15689;SDS011;7945;48.816;11.506;2023-05-29T08:03:27;2.45;;;2.22;;
15689;SDS011;7945;48.816;11.506;2023-05-29T08:05:55;2.92;;;1.90;;
15689;SDS011;7945;48.816;11.506;2023-05-29T08:08:22;2.83;;;1.83;;
15689;SDS011;7945;48.816;11.506;2023-05-29T08:10:48;3.85;;;2.20;;
15689;SDS011;7945;48.816;11.506;2023-05-29T08:13:15;5.15;;;2.03;;
15689;SDS011;7945;48.816;11.506;2023-05-29T08:15:43;3.08;;;2.20;;
15689;SDS011;7945;48.816;11.506;2023-05-29T08:18:10;5.68;;;2.08;;
15689;SDS011;7945;48.816;11.506;2023-05-29T08:20:37;4.05;;;1.98;;
15689;SDS011;7945;48.816;11.506;2023-05-29T08:23:04;5.10;;;2.38;;
15689;SDS011;7945;48.816;11.506;2023-05-29T08:25:30;2.22;;;1.95;;
15689;SDS011;7945;48.816;11.506;2023-05-29T08:27:57;3.25;;;1.95;;
15689;SDS011;7945;48.816;11.506;2023-05-29T08:30:24;2.60;;;1.92;;
15689;SDS011;7945;48.816;11.506;2023-05-29T08:32:52;4.82;;;2.13;;
15689;SDS011;7945;48.816;11.506;2023-05-29T08:35:19;2.17;;;1.77;;
15689;SDS011;7945;48.816;11.506;2023-05-29T08:37:46;2.30;;;2.08;;
15689;SDS011;7945;48.816;11.506;2023-05-29T08:40:12;3.05;;;1.90;;
15689;SDS011;7945;48.816;11.506;2023-05-29T08:42:40;2.42;;;2.03;;
15689;SDS011;7945;48.816;11.506;2023-05-29T08:45:13;2.50;;;1.88;;
15689;SDS011;7945;48.816;11.506;2023-05-29T08:47:40;2.85;;;2.03;;
15689;SDS011;7945;48.816;11.506;2023-05-29T08:50:09;2.30;;;1.73;;
15689;SDS011;7945;48.816;11.506;2023-05-29T08:52:37;2.33;;;1.73;;
15689;SDS011;7945;48.816;11.506;2023-05-29T08:55:05;6.57;;;2.03;;
15689;SDS011;7945;48.816;11.506;2023-05-29T08:57:32;2.78;;;1.73;;
15689;SDS011;7945;48.816;11.506;2023-05-29T09:00:00;4.63;;;2.03;;
15689;SDS011;7945;48.816;11.506;2023-05-29T09:02:33;3.83;;;2.08;;
15689;SDS011;7945;48.816;11.506;2023-05-29T09:05:00;3.45;;;2.10;;
15689;SDS011;7945;48.816;11.506;2023-05-29T09:07:29;3.05;;;1.92;;
15689;SDS011;7945;48.816;11.506;2023-05-29T09:09:56;2.38;;;1.88;;
15689;SDS011;7945;48.816;11.506;2023-05-29T09:12:23;3.20;;;1.88;;
15689;SDS011;7945;48.816;11.506;2023-05-29T09:14:51;2.20;;;2.00;;
15689;SDS011;7945;48.816;11.506;2023-05-29T09:17:19;12.23;;;2.88;;
15689;SDS011;7945;48.816;11.506;2023-05-29T09:19:47;5.82;;;2.20;;
15689;SDS011;7945;48.816;11.506;2023-05-29T09:22:14;5.05;;;2.30;;
15689;SDS011;7945;48.816;11.506;2023-05-29T09:24:43;2.58;;;2.20;;
15689;SDS011;7945;48.816;11.506;2023-05-29T09:27:14;2.67;;;1.92;;
15689;SDS011;7945;48.816;11.506;2023-05-29T09:29:42;3.22;;;1.88;;
15689;SDS011;7945;48.816;11.506;2023-05-29T09:32:11;6.45;;;2.10;;
15689;SDS011;7945;48.816;11.506;2023-05-29T09:34:41;4.45;;;2.40;;
15689;SDS011;7945;48.816;11.506;2023-05-29T09:37:08;3.25;;;1.90;;
15689;SDS011;7945;48.816;11.506;2023-05-29T09:39:47;2.42;;;2.05;;
15689;SDS011;7945;48.816;11.506;2023-05-29T09:42:15;3.58;;;2.20;;
15689;SDS011;7945;48.816;11.506;2023-05-29T09:44:42;4.18;;;1.90;;
15689;SDS011;7945;48.816;11.506;2023-05-29T09:47:13;4.47;;;2.30;;
15689;SDS011;7945;48.816;11.506;2023-05-29T09:49:41;2.42;;;2.20;;
15689;SDS011;7945;48.816;11.506;2023-05-29T09:52:08;5.07;;;2.30;;
15689;SDS011;7945;48.816;11.506;2023-05-29T09:54:39;3.42;;;1.77;;
15689;SDS011;7945;48.816;11.506;2023-05-29T09:57:09;2.65;;;1.98;;
15689;SDS011;7945;48.816;11.506;2023-05-29T09:59:36;7.32;;;2.95;;
15689;SDS011;7945;48.816;11.506;2023-05-29T10:02:05;2.78;;;1.60;;
15689;SDS011;7945;48.816;11.506;2023-05-29T10:04:36;2.72;;;2.05;;
15689;SDS011;7945;48.816;11.506;2023-05-29T10:07:05;3.92;;;2.20;;
15689;SDS011;7945;48.816;11.506;2023-05-29T10:09:36;3.22;;;2.08;;
15689;SDS011;7945;48.816;11.506;2023-05-29T10:12:09;2.75;;;2.15;;
15689;SDS011;7945;48.816;11.506;2023-05-29T10:14:38;3.33;;;2.17;;
15689;SDS011;7945;48.816;11.506;2023-05-29T10:17:06;2.08;;;1.75;;
15689;SDS011;7945;48.816;11.506;2023-05-29T10:19:36;3.80;;;2.08;;
15689;SDS011;7945;48.816;11.506;2023-05-29T10:22:04;2.83;;;2.30;;
15689;SDS011;7945;48.816;11.506;2023-05-29T10:24:32;3.95;;;2.03;;
15689;SDS011;7945;48.816;11.506;2023-05-29T10:27:03;2.10;;;1.90;;
15689;SDS011;7945;48.816;11.506;2023-05-29T10:29:34;3.95;;;1.77;;
15689;SDS011;7945;48.816;11.506;2023-05-29T10:32:07;4.72;;;2.10;;
15689;SDS011;7945;48.816;11.506;2023-05-29T10:34:46;3.45;;;1.70;;
15689;SDS011;7945;48.816;11.506;2023-05-29T10:37:26;3.40;;;2.10;;
15689;SDS011;7945;48.816;11.506;2023-05-29T10:40:05;3.58;;;1.90;;
15689;SDS011;7945;48.816;11.506;2023-05-29T10:42:40;3.70;;;1.73;;
15689;SDS011;7945;48.816;11.506;2023-05-29T10:45:10;2.20;;;1.90;;
15689;SDS011;7945;48.816;11.506;2023-05-29T10:48:02;2.03;;;1.80;;
15689;SDS011;7945;48.816;11.506;2023-05-29T10:51:06;4.00;;;1.98;;
15689;SDS011;7945;48.816;11.506;2023-05-29T10:53:33;3.67;;;2.00;;
15689;SDS011;7945;48.816;11.506;2023-05-29T10:56:05;5.75;;;2.03;;
15689;SDS011;7945;48.816;11.506;2023-05-29T10:58:36;2.38;;;2.05;;
15689;SDS011;7945;48.816;11.506;2023-05-29T11:01:04;4.40;;;1.90;;
15689;SDS011;7945;48.816;11.506;2023-05-29T11:03:31;6.88;;;2.20;;
15689;SDS011;7945;48.816;11.506;2023-05-29T11:05:59;3.92;;;1.75;;
15689;SDS011;7945;48.816;11.506;2023-05-29T11:08:32;4.90;;;2.13;;
15689;SDS011;7945;48.816;11.506;2023-05-29T11:11:00;2.17;;;1.80;;
15689;SDS011;7945;48.816;11.506;2023-05-29T11:13:31;3.05;;;1.77;;
15689;SDS011;7945;48.816;11.506;2023-05-29T11:16:10;4.53;;;1.60;;
15689;SDS011;7945;48.816;11.506;2023-05-29T11:18:41;5.82;;;1.77;;
15689;SDS011;7945;48.816;11.506;2023-05-29T11:21:21;2.40;;;1.90;;
15689;SDS011;7945;48.816;11.506;2023-05-29T11:23:50;1.80;;;1.60;;
15689;SDS011;7945;48.816;11.506;2023-05-29T11:26:19;2.53;;;1.50;;
15689;SDS011;7945;48.816;11.506;2023-05-29T11:28:46;3.20;;;1.83;;
15689;SDS011;7945;48.816;11.506;2023-05-29T11:31:15;2.65;;;1.58;;
15689;SDS011;7945;48.816;11.506;2023-05-29T11:33:46;2.90;;;1.80;;
15689;SDS011;7945;48.816;11.506;2023-05-29T11:36:14;3.35;;;2.13;;
15689;SDS011;7945;48.816;11.506;2023-05-29T11:38:42;3.78;;;1.83;;
15689;SDS011;7945;48.816;11.506;2023-05-29T11:41:09;8.07;;;2.13;;
15689;SDS011;7945;48.816;11.506;2023-05-29T11:43:35;2.70;;;1.40;;
15689;SDS011;7945;48.816;11.506;2023-05-29T11:46:04;2.72;;;1.52;;
15689;SDS011;7945;48.816;11.506;2023-05-29T11:48:45;4.90;;;2.00;;
15689;SDS011;7945;48.816;11.506;2023-05-29T11:51:12;2.13;;;1.60;;
15689;SDS011;7945;48.816;11.506;2023-05-29T11:53:40;2.15;;;1.48;;
15689;SDS011;7945;48.816;11.506;2023-05-29T11:56:08;2.35;;;1.80;;
15689;SDS011;7945;48.816;11.506;2023-05-29T11:58:35;2.30;;;1.63;;
15689;SDS011;7945;48.816;11.506;2023-05-29T12:01:02;2.85;;;1.63;;
15689;SDS011;7945;48.816;11.506;2023-05-29T12:03:31;3.03;;;1.70;;
15689;SDS011;7945;48.816;11.506;2023-05-29T12:06:04;2.58;;;1.67;;
15689;SDS011;7945;48.816;11.506;2023-05-29T12:08:31;2.60;;;1.83;;
15689;SDS011;7945;48.816;11.506;2023-05-29T12:10:58;2.95;;;1.70;;
15689;SDS011;7945;48.816;11.506;2023-05-29T12:13:25;2.70;;;1.77;;
15689;SDS011;7945;48.816;11.506;2023-05-29T12:15:54;2.58;;;1.90;;
15689;SDS011;7945;48.816;11.506;2023-05-29T12:18:23;2.80;;;1.48;;
15689;SDS011;7945;48.816;11.506;2023-05-29T12:20:51;2.75;;;1.70;;
15689;SDS011;7945;48.816;11.506;2023-05-29T12:23:23;3.63;;;1.88;;
15689;SDS011;7945;48.816;11.506;2023-05-29T12:25:50;9.43;;;2.10;;
15689;SDS011;7945;48.816;11.506;2023-05-29T12:28:17;1.73;;;1.63;;
15689;SDS011;7945;48.816;11.506;2023-05-29T12:30:45;1.98;;;1.48;;
15689;SDS011;7945;48.816;11.506;2023-05-29T12:33:24;3.22;;;1.70;;
15689;SDS011;7945;48.816;11.506;2023-05-29T12:35:54;1.63;;;1.50;;
15689;SDS011;7945;48.816;11.506;2023-05-29T12:38:26;2.28;;;1.50;;
15689;SDS011;7945;48.816;11.506;2023-05-29T12:40:53;2.83;;;1.60;;
15689;SDS011;7945;48.816;11.506;2023-05-29T12:43:20;3.15;;;1.50;;
15689;SDS011;7945;48.816;11.506;2023-05-29T12:45:53;1.70;;;1.40;;
15689;SDS011;7945;48.816;11.506;2023-05-29T12:48:21;1.92;;;1.50;;
15689;SDS011;7945;48.816;11.506;2023-05-29T12:50:54;3.00;;;1.60;;
15689;SDS011;7945;48.816;11.506;2023-05-29T12:53:22;2.70;;;1.80;;
15689;SDS011;7945;48.816;11.506;2023-05-29T12:55:55;2.88;;;1.50;;
15689;SDS011;7945;48.816;11.506;2023-05-29T12:58:22;2.33;;;1.30;;
15689;SDS011;7945;48.816;11.506;2023-05-29T13:00:52;1.50;;;1.35;;
15689;SDS011;7945;48.816;11.506;2023-05-29T13:03:20;3.05;;;1.80;;
15689;SDS011;7945;48.816;11.506;2023-05-29T13:05:48;2.08;;;1.58;;
15689;SDS011;7945;48.816;11.506;2023-05-29T13:08:16;2.80;;;1.65;;
15689;SDS011;7945;48.816;11.506;2023-05-29T13:10:43;1.95;;;1.73;;
15689;SDS011;7945;48.816;11.506;2023-05-29T13:13:10;2.88;;;1.38;;
15689;SDS011;7945;48.816;11.506;2023-05-29T13:15:37;1.88;;;1.60;;
15689;SDS011;7945;48.816;11.506;2023-05-29T13:18:05;2.45;;;1.60;;
15689;SDS011;7945;48.816;11.506;2023-05-29T13:20:32;4.25;;;1.95;;
15689;SDS011;7945;48.816;11.506;2023-05-29T13:23:00;1.95;;;1.63;;
15689;SDS011;7945;48.816;11.506;2023-05-29T13:25:28;2.50;;;1.38;;
15689;SDS011;7945;48.816;11.506;2023-05-29T13:27:55;3.95;;;1.90;;
15689;SDS011;7945;48.816;11.506;2023-05-29T13:30:23;5.00;;;1.75;;
15689;SDS011;7945;48.816;11.506;2023-05-29T13:32:50;2.53;;;1.63;;
15689;SDS011;7945;48.816;11.506;2023-05-29T13:35:18;3.67;;;1.70;;
15689;SDS011;7945;48.816;11.506;2023-05-29T13:37:45;3.83;;;1.73;;
15689;SDS011;7945;48.816;11.506;2023-05-29T13:40:12;2.85;;;1.77;;
15689;SDS011;7945;48.816;11.506;2023-05-29T13:42:41;4.97;;;1.75;;
15689;SDS011;7945;48.816;11.506;2023-05-29T13:45:08;3.95;;;1.80;;
15689;SDS011;7945;48.816;11.506;2023-05-29T13:47:36;3.03;;;1.58;;
15689;SDS011;7945;48.816;11.506;2023-05-29T13:50:04;2.33;;;1.40;;
15689;SDS011;7945;48.816;11.506;2023-05-29T13:52:32;1.85;;;1.45;;
15689;SDS011;7945;48.816;11.506;2023-05-29T13:54:59;4.85;;;1.90;;
15689;SDS011;7945;48.816;11.506;2023-05-29T13:57:31;2.35;;;1.60;;
15689;SDS011;7945;48.816;11.506;2023-05-29T13:59:59;4.25;;;2.42;;
15689;SDS011;7945;48.816;11.506;2023-05-29T14:02:27;2.20;;;1.45;;
15689;SDS011;7945;48.816;11.506;2023-05-29T14:04:54;1.75;;;1.45;;
15689;SDS011;7945;48.816;11.506;2023-05-29T14:07:21;2.58;;;1.77;;
15689;SDS011;7945;48.816;11.506;2023-05-29T14:09:49;1.95;;;1.60;;
15689;SDS011;7945;48.816;11.506;2023-05-29T14:12:16;3.22;;;1.95;;
15689;SDS011;7945;48.816;11.506;2023-05-29T14:14:43;3.35;;;1.92;;
15689;SDS011;7945;48.816;11.506;2023-05-29T14:17:13;4.07;;;1.65;;
15689;SDS011;7945;48.816;11.506;2023-05-29T14:19:40;2.63;;;1.80;;
15689;SDS011;7945;48.816;11.506;2023-05-29T14:22:07;1.98;;;1.55;;
15689;SDS011;7945;48.816;11.506;2023-05-29T14:24:34;3.13;;;1.88;;
15689;SDS011;7945;48.816;11.506;2023-05-29T14:27:01;1.95;;;1.48;;
15689;SDS011;7945;48.816;11.506;2023-05-29T14:29:28;2.33;;;1.58;;
15689;SDS011;7945;48.816;11.506;2023-05-29T14:31:55;3.78;;;1.55;;
15689;SDS011;7945;48.816;11.506;2023-05-29T14:34:23;3.03;;;1.90;;
15689;SDS011;7945;48.816;11.506;2023-05-29T14:36:50;3.20;;;1.83;;
15689;SDS011;7945;48.816;11.506;2023-05-29T14:39:17;3.20;;;1.90;;
15689;SDS011;7945;48.816;11.506;2023-05-29T14:41:43;2.70;;;1.65;;
15689;SDS011;7945;48.816;11.506;2023-05-29T14:44:10;2.45;;;1.60;;
15689;SDS011;7945;48.816;11.506;2023-05-29T14:46:37;2.60;;;1.70;;
15689;SDS011;7945;48.816;11.506;2023-05-29T14:49:04;3.70;;;1.85;;
15689;SDS011;7945;48.816;11.506;2023-05-29T14:51:32;2.53;;;1.23;;
15689;SDS011;7945;48.816;11.506;2023-05-29T14:54:00;3.00;;;1.52;;
15689;SDS011;7945;48.816;11.506;2023-05-29T14:56:27;2.40;;;1.67;;